Krasnovishersk, Russia
Current Conditions -  °F | °C
As of 6:30 PM on Monday 24 Nov 2014 (Local Time) from USPP Reporting Station
Clear Clear  
Wind Chill: -12°   Ceiling: Unl
Heat Index:   Visibility: 6mi
Dew Point: -2°   Wind: 13mph
Humidity: 72%   Direction: 240°WSW
Pressure: 30.62"   Gusts: NA
Location:  60.4°N, 57.08°E
Report Text: USPP 241330Z 24006MPS CAVOK M15/M19 Q1037 21090060 NOSIG RMKQFE766/1022
Loading
Personal Weather Stations






























Interactive Weather Map New forecast layout! Learn more

10-Day Weather Forecast

Advertisements
Track Severe Weather on mobile